マイアミ の空港の天気 - METARとTAF

マイアミ国際空港 ( KMIA / MIA ) - アメリカ フロリダ州マイアミ
飛行場実況気象(Metar)
観測時間02/17 17:53 EST (02/17 22:53 UTC)
風向・風速南南東 5m/s
視程10km以上
天気現象
全天の4割程度の雲 雲底高度 670m
気温25.6℃
湿度79%
気圧1016hPa
METARKMIA 172253Z 15010KT 10SM SCT022 26/22 A3000 RMK AO2 SLP160 T02560217
過去の天気等 Google飛行場航空写真 Wunderground天気予報

過去48時間のMETAR

飛行場予報(TAF)
発表時間: 2/17 15:40 EST (2/17 20:40 UTC)
予報対象時間: 17日16時 EST ~ 18日19時 EST
風向・風速南南東 8m/s
視程10km以上
全天の4割程度の雲 雲底高度 910m
17日20時 EST から
風向・風速南東 4m/s
視程10km以上
全天の4割程度の雲 雲底高度 1070m
18日9時 EST から
風向・風速南南東 6m/s
視程10km以上
全天の4割程度の雲 雲底高度 1070m
KMIA 172040Z 1721/1824 15015KT P6SM SCT030
FM180100 14008KT P6SM SCT035
FM181400 15012KT P6SM SCT035